sensor_id;sensor_type;location;lat;lon;timestamp;P1;durP1;ratioP1;P2;durP2;ratioP2
22415;SDS011;12204;50.600;4.608;2023-08-31T00:04:37;18.52;;;8.95;;
22415;SDS011;12204;50.600;4.608;2023-08-31T00:09:44;19.88;;;8.75;;
22415;SDS011;12204;50.600;4.608;2023-08-31T00:14:49;21.17;;;8.25;;
22415;SDS011;12204;50.600;4.608;2023-08-31T00:19:53;19.83;;;7.90;;
22415;SDS011;12204;50.600;4.608;2023-08-31T00:30:42;18.25;;;8.32;;
22415;SDS011;12204;50.600;4.608;2023-08-31T00:35:47;19.37;;;8.27;;
22415;SDS011;12204;50.600;4.608;2023-08-31T00:40:51;18.67;;;8.30;;
22415;SDS011;12204;50.600;4.608;2023-08-31T00:45:56;17.10;;;8.10;;
22415;SDS011;12204;50.600;4.608;2023-08-31T00:51:01;19.77;;;8.23;;
22415;SDS011;12204;50.600;4.608;2023-08-31T00:56:05;16.98;;;7.75;;
22415;SDS011;12204;50.600;4.608;2023-08-31T01:01:13;18.13;;;7.50;;
22415;SDS011;12204;50.600;4.608;2023-08-31T01:06:27;18.13;;;7.20;;
22415;SDS011;12204;50.600;4.608;2023-08-31T01:11:45;18.83;;;7.80;;
22415;SDS011;12204;50.600;4.608;2023-08-31T01:17:01;17.45;;;7.30;;
22415;SDS011;12204;50.600;4.608;2023-08-31T01:22:09;15.30;;;6.83;;
22415;SDS011;12204;50.600;4.608;2023-08-31T01:27:22;15.18;;;6.95;;
22415;SDS011;12204;50.600;4.608;2023-08-31T01:32:26;16.48;;;6.90;;
22415;SDS011;12204;50.600;4.608;2023-08-31T01:37:31;15.65;;;6.90;;
22415;SDS011;12204;50.600;4.608;2023-08-31T01:42:46;15.25;;;6.13;;
22415;SDS011;12204;50.600;4.608;2023-08-31T01:47:49;15.13;;;6.10;;
22415;SDS011;12204;50.600;4.608;2023-08-31T01:52:53;12.85;;;5.65;;
22415;SDS011;12204;50.600;4.608;2023-08-31T01:57:58;14.63;;;6.38;;
22415;SDS011;12204;50.600;4.608;2023-08-31T02:03:03;15.10;;;6.10;;
22415;SDS011;12204;50.600;4.608;2023-08-31T02:08:08;14.45;;;5.72;;
22415;SDS011;12204;50.600;4.608;2023-08-31T02:13:13;14.27;;;6.15;;
22415;SDS011;12204;50.600;4.608;2023-08-31T02:18:17;12.75;;;5.72;;
22415;SDS011;12204;50.600;4.608;2023-08-31T02:23:20;15.30;;;5.43;;
22415;SDS011;12204;50.600;4.608;2023-08-31T02:28:25;13.40;;;5.63;;
22415;SDS011;12204;50.600;4.608;2023-08-31T02:33:31;11.10;;;5.13;;
22415;SDS011;12204;50.600;4.608;2023-08-31T02:38:34;11.77;;;5.13;;
22415;SDS011;12204;50.600;4.608;2023-08-31T02:43:39;14.35;;;5.03;;
22415;SDS011;12204;50.600;4.608;2023-08-31T02:48:44;12.50;;;5.30;;
22415;SDS011;12204;50.600;4.608;2023-08-31T02:53:49;15.23;;;5.50;;
22415;SDS011;12204;50.600;4.608;2023-08-31T02:58:56;12.93;;;5.10;;
22415;SDS011;12204;50.600;4.608;2023-08-31T03:03:59;10.50;;;4.68;;
22415;SDS011;12204;50.600;4.608;2023-08-31T03:09:03;10.00;;;4.70;;
22415;SDS011;12204;50.600;4.608;2023-08-31T03:14:08;13.25;;;4.32;;
22415;SDS011;12204;50.600;4.608;2023-08-31T03:19:11;10.48;;;4.55;;
22415;SDS011;12204;50.600;4.608;2023-08-31T03:24:15;11.80;;;4.30;;
22415;SDS011;12204;50.600;4.608;2023-08-31T03:29:20;9.40;;;4.30;;
22415;SDS011;12204;50.600;4.608;2023-08-31T03:34:28;10.02;;;4.30;;
22415;SDS011;12204;50.600;4.608;2023-08-31T03:39:32;14.10;;;4.25;;
22415;SDS011;12204;50.600;4.608;2023-08-31T03:44:37;12.55;;;4.43;;
22415;SDS011;12204;50.600;4.608;2023-08-31T03:49:43;11.05;;;4.50;;
22415;SDS011;12204;50.600;4.608;2023-08-31T03:54:49;9.05;;;4.07;;
22415;SDS011;12204;50.600;4.608;2023-08-31T03:59:56;11.07;;;4.07;;
22415;SDS011;12204;50.600;4.608;2023-08-31T04:04:59;10.55;;;4.00;;
22415;SDS011;12204;50.600;4.608;2023-08-31T04:10:07;10.07;;;3.97;;
22415;SDS011;12204;50.600;4.608;2023-08-31T04:15:12;11.40;;;3.83;;
22415;SDS011;12204;50.600;4.608;2023-08-31T04:20:16;10.25;;;3.63;;
22415;SDS011;12204;50.600;4.608;2023-08-31T04:25:20;12.55;;;3.78;;
22415;SDS011;12204;50.600;4.608;2023-08-31T04:30:25;10.70;;;3.90;;
22415;SDS011;12204;50.600;4.608;2023-08-31T04:35:29;8.75;;;3.42;;
22415;SDS011;12204;50.600;4.608;2023-08-31T04:40:32;8.13;;;3.40;;
22415;SDS011;12204;50.600;4.608;2023-08-31T04:45:39;8.98;;;3.60;;
22415;SDS011;12204;50.600;4.608;2023-08-31T04:50:42;6.90;;;3.17;;
22415;SDS011;12204;50.600;4.608;2023-08-31T04:55:46;8.48;;;3.25;;
22415;SDS011;12204;50.600;4.608;2023-08-31T05:00:51;7.53;;;3.33;;
22415;SDS011;12204;50.600;4.608;2023-08-31T05:05:54;8.25;;;3.15;;
22415;SDS011;12204;50.600;4.608;2023-08-31T05:10:58;7.88;;;3.20;;
22415;SDS011;12204;50.600;4.608;2023-08-31T05:16:03;9.98;;;3.15;;
22415;SDS011;12204;50.600;4.608;2023-08-31T05:21:06;9.20;;;3.20;;
22415;SDS011;12204;50.600;4.608;2023-08-31T05:26:10;8.25;;;3.13;;
22415;SDS011;12204;50.600;4.608;2023-08-31T05:31:15;7.57;;;3.05;;
22415;SDS011;12204;50.600;4.608;2023-08-31T05:36:18;10.40;;;2.90;;
22415;SDS011;12204;50.600;4.608;2023-08-31T05:41:22;7.03;;;2.88;;
22415;SDS011;12204;50.600;4.608;2023-08-31T05:46:26;8.88;;;2.92;;
22415;SDS011;12204;50.600;4.608;2023-08-31T05:51:30;7.90;;;2.60;;
22415;SDS011;12204;50.600;4.608;2023-08-31T05:56:33;9.40;;;3.13;;
22415;SDS011;12204;50.600;4.608;2023-08-31T06:01:38;7.82;;;2.90;;
22415;SDS011;12204;50.600;4.608;2023-08-31T06:06:42;8.73;;;2.65;;
22415;SDS011;12204;50.600;4.608;2023-08-31T06:11:45;7.32;;;2.50;;
22415;SDS011;12204;50.600;4.608;2023-08-31T06:16:50;7.13;;;2.55;;
22415;SDS011;12204;50.600;4.608;2023-08-31T06:21:54;6.05;;;2.50;;
22415;SDS011;12204;50.600;4.608;2023-08-31T06:26:58;13.80;;;2.42;;
22415;SDS011;12204;50.600;4.608;2023-08-31T06:32:03;14.82;;;2.65;;
22415;SDS011;12204;50.600;4.608;2023-08-31T06:37:07;14.88;;;2.35;;
22415;SDS011;12204;50.600;4.608;2023-08-31T06:42:11;10.65;;;2.22;;
22415;SDS011;12204;50.600;4.608;2023-08-31T06:47:16;9.68;;;2.40;;
22415;SDS011;12204;50.600;4.608;2023-08-31T06:52:19;7.07;;;1.80;;
22415;SDS011;12204;50.600;4.608;2023-08-31T06:57:29;6.82;;;2.00;;
22415;SDS011;12204;50.600;4.608;2023-08-31T07:02:36;11.60;;;2.08;;
22415;SDS011;12204;50.600;4.608;2023-08-31T07:07:43;7.90;;;2.10;;
22415;SDS011;12204;50.600;4.608;2023-08-31T07:12:47;7.18;;;2.28;;
22415;SDS011;12204;50.600;4.608;2023-08-31T07:17:52;13.65;;;2.10;;
22415;SDS011;12204;50.600;4.608;2023-08-31T07:22:55;11.60;;;2.10;;
22415;SDS011;12204;50.600;4.608;2023-08-31T07:28:00;10.38;;;1.85;;
22415;SDS011;12204;50.600;4.608;2023-08-31T07:33:05;7.32;;;1.92;;
22415;SDS011;12204;50.600;4.608;2023-08-31T07:38:30;9.00;;;1.88;;
22415;SDS011;12204;50.600;4.608;2023-08-31T07:43:34;9.07;;;1.83;;
22415;SDS011;12204;50.600;4.608;2023-08-31T07:48:45;8.57;;;1.92;;
22415;SDS011;12204;50.600;4.608;2023-08-31T07:53:49;6.18;;;1.58;;
22415;SDS011;12204;50.600;4.608;2023-08-31T07:58:53;6.65;;;1.80;;
22415;SDS011;12204;50.600;4.608;2023-08-31T08:03:58;10.85;;;1.92;;
22415;SDS011;12204;50.600;4.608;2023-08-31T08:09:01;13.30;;;1.90;;
22415;SDS011;12204;50.600;4.608;2023-08-31T08:14:06;8.23;;;2.20;;
22415;SDS011;12204;50.600;4.608;2023-08-31T08:19:10;13.10;;;2.22;;
22415;SDS011;12204;50.600;4.608;2023-08-31T08:24:14;10.07;;;1.80;;
22415;SDS011;12204;50.600;4.608;2023-08-31T08:29:17;12.13;;;3.90;;
22415;SDS011;12204;50.600;4.608;2023-08-31T08:34:22;37.83;;;14.50;;
22415;SDS011;12204;50.600;4.608;2023-08-31T08:39:25;56.13;;;25.42;;
22415;SDS011;12204;50.600;4.608;2023-08-31T08:44:30;42.55;;;18.92;;
22415;SDS011;12204;50.600;4.608;2023-08-31T08:49:37;41.58;;;18.00;;
22415;SDS011;12204;50.600;4.608;2023-08-31T08:54:41;37.92;;;16.23;;
22415;SDS011;12204;50.600;4.608;2023-08-31T08:59:44;32.55;;;14.68;;
22415;SDS011;12204;50.600;4.608;2023-08-31T09:04:49;31.73;;;14.30;;
22415;SDS011;12204;50.600;4.608;2023-08-31T09:09:56;29.30;;;13.70;;
22415;SDS011;12204;50.600;4.608;2023-08-31T09:14:59;27.52;;;11.70;;
22415;SDS011;12204;50.600;4.608;2023-08-31T09:20:08;25.47;;;11.03;;
22415;SDS011;12204;50.600;4.608;2023-08-31T09:25:13;26.42;;;10.80;;
22415;SDS011;12204;50.600;4.608;2023-08-31T09:30:17;22.23;;;8.50;;
22415;SDS011;12204;50.600;4.608;2023-08-31T09:35:22;17.73;;;5.32;;
22415;SDS011;12204;50.600;4.608;2023-08-31T09:40:29;27.00;;;4.60;;
22415;SDS011;12204;50.600;4.608;2023-08-31T09:45:33;25.83;;;4.40;;
22415;SDS011;12204;50.600;4.608;2023-08-31T09:50:42;21.95;;;3.35;;
22415;SDS011;12204;50.600;4.608;2023-08-31T09:55:48;14.77;;;2.35;;
22415;SDS011;12204;50.600;4.608;2023-08-31T10:00:52;10.23;;;2.30;;
22415;SDS011;12204;50.600;4.608;2023-08-31T10:05:57;9.13;;;1.90;;
22415;SDS011;12204;50.600;4.608;2023-08-31T10:11:02;9.55;;;2.10;;
22415;SDS011;12204;50.600;4.608;2023-08-31T10:16:08;13.63;;;2.10;;
22415;SDS011;12204;50.600;4.608;2023-08-31T10:21:17;11.20;;;2.33;;
22415;SDS011;12204;50.600;4.608;2023-08-31T10:26:22;9.50;;;1.60;;
22415;SDS011;12204;50.600;4.608;2023-08-31T10:36:52;11.55;;;2.78;;
22415;SDS011;12204;50.600;4.608;2023-08-31T10:42:14;10.05;;;3.10;;
22415;SDS011;12204;50.600;4.608;2023-08-31T10:47:17;25.02;;;6.60;;
22415;SDS011;12204;50.600;4.608;2023-08-31T10:52:22;36.55;;;10.90;;
22415;SDS011;12204;50.600;4.608;2023-08-31T10:57:42;24.20;;;6.32;;
22415;SDS011;12204;50.600;4.608;2023-08-31T11:02:47;21.88;;;5.18;;
22415;SDS011;12204;50.600;4.608;2023-08-31T11:07:53;15.20;;;3.83;;
22415;SDS011;12204;50.600;4.608;2023-08-31T11:12:58;11.13;;;2.60;;
22415;SDS011;12204;50.600;4.608;2023-08-31T11:18:03;10.05;;;2.30;;
22415;SDS011;12204;50.600;4.608;2023-08-31T11:23:10;9.32;;;2.00;;
22415;SDS011;12204;50.600;4.608;2023-08-31T11:28:18;10.40;;;2.00;;
22415;SDS011;12204;50.600;4.608;2023-08-31T11:33:22;8.13;;;2.00;;
22415;SDS011;12204;50.600;4.608;2023-08-31T11:38:27;6.68;;;1.50;;
22415;SDS011;12204;50.600;4.608;2023-08-31T11:43:32;6.70;;;1.70;;
22415;SDS011;12204;50.600;4.608;2023-08-31T11:48:35;5.38;;;1.50;;
22415;SDS011;12204;50.600;4.608;2023-08-31T11:53:41;6.82;;;1.48;;
22415;SDS011;12204;50.600;4.608;2023-08-31T11:58:44;5.85;;;1.50;;
22415;SDS011;12204;50.600;4.608;2023-08-31T12:04:09;6.43;;;1.40;;
22415;SDS011;12204;50.600;4.608;2023-08-31T12:09:15;7.65;;;1.60;;
22415;SDS011;12204;50.600;4.608;2023-08-31T12:14:20;5.68;;;1.52;;
22415;SDS011;12204;50.600;4.608;2023-08-31T12:19:26;7.68;;;1.63;;
22415;SDS011;12204;50.600;4.608;2023-08-31T12:24:37;7.78;;;1.58;;
22415;SDS011;12204;50.600;4.608;2023-08-31T12:29:42;6.88;;;1.40;;
22415;SDS011;12204;50.600;4.608;2023-08-31T12:34:45;7.07;;;1.60;;
22415;SDS011;12204;50.600;4.608;2023-08-31T12:39:50;7.35;;;1.70;;
22415;SDS011;12204;50.600;4.608;2023-08-31T12:44:53;7.68;;;1.48;;
22415;SDS011;12204;50.600;4.608;2023-08-31T12:49:57;4.55;;;1.35;;
22415;SDS011;12204;50.600;4.608;2023-08-31T12:55:02;5.35;;;1.30;;
22415;SDS011;12204;50.600;4.608;2023-08-31T13:00:06;5.05;;;1.60;;
22415;SDS011;12204;50.600;4.608;2023-08-31T13:05:13;4.93;;;1.47;;
22415;SDS011;12204;50.600;4.608;2023-08-31T13:10:18;6.82;;;1.90;;
22415;SDS011;12204;50.600;4.608;2023-08-31T13:15:23;7.80;;;1.70;;
22415;SDS011;12204;50.600;4.608;2023-08-31T13:20:26;4.45;;;1.58;;
22415;SDS011;12204;50.600;4.608;2023-08-31T13:25:31;5.88;;;1.50;;
22415;SDS011;12204;50.600;4.608;2023-08-31T13:30:35;7.90;;;1.50;;
22415;SDS011;12204;50.600;4.608;2023-08-31T13:35:39;6.07;;;1.40;;
22415;SDS011;12204;50.600;4.608;2023-08-31T13:40:43;8.80;;;1.58;;
22415;SDS011;12204;50.600;4.608;2023-08-31T13:45:47;7.70;;;1.60;;
22415;SDS011;12204;50.600;4.608;2023-08-31T13:50:50;5.05;;;1.50;;
22415;SDS011;12204;50.600;4.608;2023-08-31T13:55:55;6.95;;;1.60;;
22415;SDS011;12204;50.600;4.608;2023-08-31T14:01:00;5.35;;;1.60;;
22415;SDS011;12204;50.600;4.608;2023-08-31T14:06:07;8.55;;;1.90;;
22415;SDS011;12204;50.600;4.608;2023-08-31T14:11:17;6.97;;;1.70;;
22415;SDS011;12204;50.600;4.608;2023-08-31T14:16:22;9.60;;;1.73;;
22415;SDS011;12204;50.600;4.608;2023-08-31T14:21:36;6.82;;;1.70;;
22415;SDS011;12204;50.600;4.608;2023-08-31T14:26:50;9.05;;;2.00;;
22415;SDS011;12204;50.600;4.608;2023-08-31T14:32:03;7.78;;;1.77;;
22415;SDS011;12204;50.600;4.608;2023-08-31T14:37:09;8.10;;;1.85;;
22415;SDS011;12204;50.600;4.608;2023-08-31T14:42:16;7.57;;;1.73;;
22415;SDS011;12204;50.600;4.608;2023-08-31T14:47:25;6.63;;;1.60;;
22415;SDS011;12204;50.600;4.608;2023-08-31T14:52:35;7.68;;;1.52;;
22415;SDS011;12204;50.600;4.608;2023-08-31T14:57:43;7.15;;;1.67;;
22415;SDS011;12204;50.600;4.608;2023-08-31T15:02:56;9.43;;;1.77;;
22415;SDS011;12204;50.600;4.608;2023-08-31T15:08:09;7.57;;;1.60;;
22415;SDS011;12204;50.600;4.608;2023-08-31T15:13:16;9.95;;;1.90;;
22415;SDS011;12204;50.600;4.608;2023-08-31T15:18:23;7.90;;;1.80;;
22415;SDS011;12204;50.600;4.608;2023-08-31T15:23:29;14.38;;;2.15;;
22415;SDS011;12204;50.600;4.608;2023-08-31T15:28:50;11.40;;;2.30;;
22415;SDS011;12204;50.600;4.608;2023-08-31T15:33:57;10.23;;;2.30;;
22415;SDS011;12204;50.600;4.608;2023-08-31T15:39:05;8.35;;;2.03;;
22415;SDS011;12204;50.600;4.608;2023-08-31T15:44:16;17.50;;;2.40;;
22415;SDS011;12204;50.600;4.608;2023-08-31T15:49:24;14.05;;;2.55;;
22415;SDS011;12204;50.600;4.608;2023-08-31T15:54:31;8.52;;;2.08;;
22415;SDS011;12204;50.600;4.608;2023-08-31T15:59:49;9.95;;;2.30;;
22415;SDS011;12204;50.600;4.608;2023-08-31T16:05:03;9.33;;;2.10;;
22415;SDS011;12204;50.600;4.608;2023-08-31T16:10:12;8.95;;;2.03;;
22415;SDS011;12204;50.600;4.608;2023-08-31T16:15:21;9.48;;;2.00;;
22415;SDS011;12204;50.600;4.608;2023-08-31T16:20:29;9.20;;;2.13;;
22415;SDS011;12204;50.600;4.608;2023-08-31T16:25:35;9.25;;;2.20;;
22415;SDS011;12204;50.600;4.608;2023-08-31T16:30:46;10.32;;;2.10;;
22415;SDS011;12204;50.600;4.608;2023-08-31T16:35:57;9.93;;;2.67;;
22415;SDS011;12204;50.600;4.608;2023-08-31T16:41:03;8.23;;;2.22;;
22415;SDS011;12204;50.600;4.608;2023-08-31T16:46:11;10.80;;;2.53;;
22415;SDS011;12204;50.600;4.608;2023-08-31T16:51:19;8.30;;;2.60;;
22415;SDS011;12204;50.600;4.608;2023-08-31T16:56:24;7.95;;;2.22;;
22415;SDS011;12204;50.600;4.608;2023-08-31T17:01:32;8.05;;;2.20;;
22415;SDS011;12204;50.600;4.608;2023-08-31T17:06:42;7.68;;;2.45;;
22415;SDS011;12204;50.600;4.608;2023-08-31T17:11:48;7.65;;;2.20;;
22415;SDS011;12204;50.600;4.608;2023-08-31T17:16:55;8.45;;;2.50;;
22415;SDS011;12204;50.600;4.608;2023-08-31T17:22:05;9.43;;;2.38;;
22415;SDS011;12204;50.600;4.608;2023-08-31T17:27:12;8.48;;;2.45;;
22415;SDS011;12204;50.600;4.608;2023-08-31T17:37:26;7.57;;;2.30;;
22415;SDS011;12204;50.600;4.608;2023-08-31T17:42:34;7.65;;;2.33;;
22415;SDS011;12204;50.600;4.608;2023-08-31T17:47:47;8.07;;;2.25;;
22415;SDS011;12204;50.600;4.608;2023-08-31T17:52:52;9.07;;;2.60;;
22415;SDS011;12204;50.600;4.608;2023-08-31T17:58:00;8.43;;;2.40;;
22415;SDS011;12204;50.600;4.608;2023-08-31T18:03:10;7.97;;;2.22;;
22415;SDS011;12204;50.600;4.608;2023-08-31T18:08:20;5.80;;;2.00;;
22415;SDS011;12204;50.600;4.608;2023-08-31T18:13:31;7.43;;;2.10;;
22415;SDS011;12204;50.600;4.608;2023-08-31T18:18:39;8.38;;;2.15;;
22415;SDS011;12204;50.600;4.608;2023-08-31T18:23:46;7.15;;;2.40;;
22415;SDS011;12204;50.600;4.608;2023-08-31T18:28:52;7.85;;;2.03;;
22415;SDS011;12204;50.600;4.608;2023-08-31T18:33:59;6.28;;;1.90;;
22415;SDS011;12204;50.600;4.608;2023-08-31T18:39:05;5.93;;;1.90;;
22415;SDS011;12204;50.600;4.608;2023-08-31T18:44:11;7.05;;;2.00;;
22415;SDS011;12204;50.600;4.608;2023-08-31T18:49:18;7.07;;;1.90;;
22415;SDS011;12204;50.600;4.608;2023-08-31T18:54:24;6.57;;;2.00;;
22415;SDS011;12204;50.600;4.608;2023-08-31T18:59:31;6.45;;;2.13;;
22415;SDS011;12204;50.600;4.608;2023-08-31T19:04:40;7.55;;;1.88;;
22415;SDS011;12204;50.600;4.608;2023-08-31T19:09:46;6.57;;;1.90;;
22415;SDS011;12204;50.600;4.608;2023-08-31T19:15:09;6.50;;;1.98;;
22415;SDS011;12204;50.600;4.608;2023-08-31T19:20:21;7.25;;;1.92;;
22415;SDS011;12204;50.600;4.608;2023-08-31T19:25:26;5.93;;;1.90;;
22415;SDS011;12204;50.600;4.608;2023-08-31T19:30:32;6.32;;;1.92;;
22415;SDS011;12204;50.600;4.608;2023-08-31T19:35:40;7.45;;;1.85;;
22415;SDS011;12204;50.600;4.608;2023-08-31T19:40:59;6.35;;;2.00;;
22415;SDS011;12204;50.600;4.608;2023-08-31T19:46:08;6.90;;;2.00;;
22415;SDS011;12204;50.600;4.608;2023-08-31T19:51:15;9.68;;;1.73;;
22415;SDS011;12204;50.600;4.608;2023-08-31T19:56:19;5.80;;;1.70;;
22415;SDS011;12204;50.600;4.608;2023-08-31T20:01:25;5.65;;;1.80;;
22415;SDS011;12204;50.600;4.608;2023-08-31T20:06:32;5.72;;;1.80;;
22415;SDS011;12204;50.600;4.608;2023-08-31T20:11:37;6.47;;;1.90;;
22415;SDS011;12204;50.600;4.608;2023-08-31T20:16:42;5.88;;;1.63;;
22415;SDS011;12204;50.600;4.608;2023-08-31T20:21:49;5.38;;;1.73;;
22415;SDS011;12204;50.600;4.608;2023-08-31T20:26:55;5.05;;;1.67;;
22415;SDS011;12204;50.600;4.608;2023-08-31T20:32:04;7.15;;;1.77;;
22415;SDS011;12204;50.600;4.608;2023-08-31T20:37:13;5.65;;;1.83;;
22415;SDS011;12204;50.600;4.608;2023-08-31T20:47:23;5.65;;;1.88;;
22415;SDS011;12204;50.600;4.608;2023-08-31T20:52:28;9.15;;;1.90;;
22415;SDS011;12204;50.600;4.608;2023-08-31T20:57:35;8.57;;;1.98;;
22415;SDS011;12204;50.600;4.608;2023-08-31T21:02:38;10.02;;;1.70;;
22415;SDS011;12204;50.600;4.608;2023-08-31T21:07:43;10.20;;;2.03;;
22415;SDS011;12204;50.600;4.608;2023-08-31T21:12:47;22.88;;;3.35;;
22415;SDS011;12204;50.600;4.608;2023-08-31T21:17:53;29.92;;;3.63;;
22415;SDS011;12204;50.600;4.608;2023-08-31T21:22:58;30.25;;;3.42;;
22415;SDS011;12204;50.600;4.608;2023-08-31T21:28:02;31.20;;;3.80;;
22415;SDS011;12204;50.600;4.608;2023-08-31T21:33:06;22.50;;;3.45;;
22415;SDS011;12204;50.600;4.608;2023-08-31T21:38:11;16.55;;;3.33;;
22415;SDS011;12204;50.600;4.608;2023-08-31T21:43:17;19.98;;;3.55;;
22415;SDS011;12204;50.600;4.608;2023-08-31T21:48:20;22.20;;;3.30;;
22415;SDS011;12204;50.600;4.608;2023-08-31T21:53:25;17.08;;;3.60;;
22415;SDS011;12204;50.600;4.608;2023-08-31T21:58:28;18.08;;;3.35;;
22415;SDS011;12204;50.600;4.608;2023-08-31T22:03:32;13.75;;;3.20;;
22415;SDS011;12204;50.600;4.608;2023-08-31T22:08:39;16.80;;;3.10;;
22415;SDS011;12204;50.600;4.608;2023-08-31T22:13:43;14.93;;;3.50;;
22415;SDS011;12204;50.600;4.608;2023-08-31T22:18:46;15.18;;;3.13;;
22415;SDS011;12204;50.600;4.608;2023-08-31T22:23:54;12.63;;;3.08;;
22415;SDS011;12204;50.600;4.608;2023-08-31T22:28:58;12.93;;;3.30;;
22415;SDS011;12204;50.600;4.608;2023-08-31T22:34:02;12.55;;;2.83;;
22415;SDS011;12204;50.600;4.608;2023-08-31T22:39:06;13.60;;;3.13;;
22415;SDS011;12204;50.600;4.608;2023-08-31T22:44:10;14.70;;;2.95;;
22415;SDS011;12204;50.600;4.608;2023-08-31T22:49:14;13.73;;;3.08;;
22415;SDS011;12204;50.600;4.608;2023-08-31T22:54:19;13.70;;;3.53;;
22415;SDS011;12204;50.600;4.608;2023-08-31T22:59:23;14.80;;;3.17;;
22415;SDS011;12204;50.600;4.608;2023-08-31T23:04:26;11.82;;;2.95;;
22415;SDS011;12204;50.600;4.608;2023-08-31T23:09:31;11.05;;;2.80;;
22415;SDS011;12204;50.600;4.608;2023-08-31T23:14:36;11.98;;;3.00;;
22415;SDS011;12204;50.600;4.608;2023-08-31T23:19:40;12.50;;;2.88;;
22415;SDS011;12204;50.600;4.608;2023-08-31T23:24:44;12.18;;;3.00;;
22415;SDS011;12204;50.600;4.608;2023-08-31T23:29:48;12.23;;;2.90;;
22415;SDS011;12204;50.600;4.608;2023-08-31T23:34:51;12.52;;;2.95;;
22415;SDS011;12204;50.600;4.608;2023-08-31T23:39:57;8.95;;;2.72;;
22415;SDS011;12204;50.600;4.608;2023-08-31T23:45:01;12.55;;;3.40;;
22415;SDS011;12204;50.600;4.608;2023-08-31T23:50:05;10.90;;;2.50;;
22415;SDS011;12204;50.600;4.608;2023-08-31T23:55:11;11.57;;;2.70;;
